Time;durP1;ratioP1;P1;durP2;ratioP2;P2;SDS_P1;SDS_P2;PMS_P1;PMS_P2;Temp;Humidity;BMP_temperature;BMP_pressure;BME280_temperature;BME280_humidity;BME280_pressure;Samples;Min_cycle;Max_cycle;Signal;HPM_P1;HPM_P2
2022/05/24 00:01:30;;;;;;;3.40;1.88;;;;;;;16.85;53.50;99523.84;5073134;28;20485;-76
2022/05/24 00:03:59;;;;;;;7.20;1.83;;;;;;;16.84;53.48;99523.00;5073323;28;20125;-76
2022/05/24 00:06:31;;;;;;;2.78;1.83;;;;;;;16.85;53.54;99502.31;5073204;28;20102;-75
2022/05/24 00:09:00;;;;;;;4.20;1.90;;;;;;;16.82;53.64;99508.00;5073394;28;20119;-74
2022/05/24 00:11:33;;;;;;;3.85;1.90;;;;;;;16.88;53.19;99510.91;5073304;28;20041;-78
2022/05/24 00:14:01;;;;;;;2.78;1.77;;;;;;;16.87;53.27;99517.31;5073490;28;20040;-76
2022/05/24 00:16:29;;;;;;;5.35;1.80;;;;;;;16.74;53.84;99515.97;5073161;28;20459;-75
2022/05/24 00:18:58;;;;;;;2.90;1.60;;;;;;;16.63;54.16;99508.91;5073031;28;20477;-75
2022/05/24 00:21:27;;;;;;;5.28;2.10;;;;;;;16.75;53.76;99512.28;5072738;28;20049;-74
2022/05/24 00:23:56;;;;;;;3.70;1.90;;;;;;;16.72;53.97;99509.91;5072892;28;20044;-75
2022/05/24 00:26:30;;;;;;;3.80;1.80;;;;;;;16.59;54.35;99508.34;5072969;28;20072;-75
2022/05/24 00:28:58;;;;;;;5.28;1.80;;;;;;;16.69;53.99;99512.88;5072055;28;20044;-72
2022/05/24 00:31:27;;;;;;;5.50;1.80;;;;;;;16.71;54.01;99516.28;5071657;28;20101;-72
2022/05/24 00:33:55;;;;;;;5.60;2.00;;;;;;;16.64;54.00;99515.16;5075571;28;20399;-78
2022/05/24 00:36:23;;;;;;;4.07;1.88;;;;;;;16.63;53.94;99514.28;5075928;28;20440;-78
2022/05/24 00:38:52;;;;;;;3.80;1.90;;;;;;;16.76;53.54;99508.59;5076953;28;20401;-78
2022/05/24 00:41:26;;;;;;;4.30;1.73;;;;;;;16.79;53.66;99509.16;5077068;28;20144;-78
2022/05/24 00:43:58;;;;;;;3.20;1.75;;;;;;;16.78;53.35;99511.97;5077074;28;20037;-78
2022/05/24 00:46:29;;;;;;;4.20;1.70;;;;;;;16.65;53.62;99512.28;5077143;28;20397;-74
2022/05/24 00:49:01;;;;;;;4.25;2.10;;;;;;;16.57;53.94;99514.88;5076151;28;20450;-75
2022/05/24 00:51:34;;;;;;;4.95;1.70;;;;;;;16.68;53.68;99506.63;5076821;28;20045;-76
2022/05/24 00:54:04;;;;;;;4.22;1.70;;;;;;;16.49;54.46;99504.84;5076634;28;20048;-75
2022/05/24 00:56:49;;;;;;;3.33;1.67;;;;;;;16.62;53.94;99506.38;5076648;28;20037;-76
2022/05/24 00:59:27;;;;;;;3.72;1.88;;;;;;;16.60;54.04;99504.69;5076855;28;20162;-76
2022/05/24 01:01:56;;;;;;;4.32;1.95;;;;;;;16.59;54.09;99502.09;5076826;28;20072;-72
2022/05/24 01:04:24;;;;;;;2.97;1.80;;;;;;;16.59;54.14;99502.09;5076474;28;20064;-75
2022/05/24 01:06:53;;;;;;;4.00;1.83;;;;;;;16.29;55.17;99508.59;5076676;28;20055;-75
2022/05/24 01:09:28;;;;;;;2.72;1.70;;;;;;;16.33;54.93;99504.66;5076279;28;20036;-73
2022/05/24 01:12:00;;;;;;;4.70;2.05;;;;;;;16.25;55.20;99507.22;5076754;28;20040;-75
2022/05/24 01:14:28;;;;;;;3.40;1.70;;;;;;;16.39;54.76;99509.41;5076439;28;20047;-75
2022/05/24 01:16:58;;;;;;;4.60;1.90;;;;;;;16.12;55.32;99510.25;5075275;28;20086;-76
2022/05/24 01:19:34;;;;;;;5.30;2.17;;;;;;;16.18;55.33;99506.09;5074871;28;20055;-75
2022/05/24 01:22:16;;;;;;;3.42;2.00;;;;;;;16.17;55.04;99507.94;5076199;28;20040;-75
2022/05/24 01:24:56;;;;;;;4.32;1.90;;;;;;;16.05;55.35;99505.56;5076178;28;20062;-75
2022/05/24 01:27:26;;;;;;;3.08;2.05;;;;;;;16.02;55.78;99510.25;5076175;28;20051;-75
2022/05/24 01:29:54;;;;;;;3.67;1.80;;;;;;;16.18;55.16;99511.47;5076274;28;20500;-75
2022/05/24 01:37:54;;;;;;;4.63;2.13;;;;;;;16.29;55.18;99516.69;5053584;28;20052;-75
2022/05/24 01:40:22;;;;;;;4.55;1.88;;;;;;;16.18;55.37;99516.84;5075874;28;20044;-76
2022/05/24 01:42:54;;;;;;;3.10;1.83;;;;;;;16.22;55.27;99513.75;5076099;28;20094;-75
2022/05/24 01:45:28;;;;;;;3.67;2.05;;;;;;;16.22;55.24;99513.75;5074281;28;20052;-75
2022/05/24 01:48:02;;;;;;;5.57;1.95;;;;;;;16.24;55.24;99516.28;5076039;28;20056;-74
2022/05/24 01:50:34;;;;;;;4.25;1.90;;;;;;;16.31;54.99;99526.31;5074443;28;20044;-75
2022/05/24 01:53:07;;;;;;;3.40;1.70;;;;;;;16.33;55.01;99531.56;5075781;28;20049;-75
2022/05/24 01:55:39;;;;;;;3.15;2.05;;;;;;;16.26;55.45;99543.91;5075557;28;20433;-75
2022/05/24 01:58:12;;;;;;;;;;;;;;;16.35;55.22;99559.16;5075212;28;20053;-75
2022/05/24 02:00:56;;;;;;;3.47;1.77;;;;;;;16.37;55.24;99573.31;5075602;28;19920;-74
2022/05/24 02:03:24;;;;;;;3.53;1.98;;;;;;;16.37;54.88;99580.53;5075470;28;20040;-75
2022/05/24 02:05:56;;;;;;;4.25;2.20;;;;;;;16.33;55.07;99574.63;5075473;28;20048;-74
2022/05/24 02:08:24;;;;;;;5.25;1.98;;;;;;;16.51;54.67;99547.78;5075319;28;20048;-76
2022/05/24 02:10:56;;;;;;;3.85;2.00;;;;;;;16.62;56.11;99549.44;5075081;28;20036;-75
2022/05/24 02:13:32;;;;;;;4.18;2.38;;;;;;;16.74;55.51;99530.28;5075025;28;20040;-76
2022/05/24 02:16:06;;;;;;;4.38;2.30;;;;;;;16.62;55.60;99503.69;5074978;28;20055;-75
2022/05/24 02:18:35;;;;;;;3.30;1.90;;;;;;;16.30;56.74;99475.31;5075186;28;20068;-75
2022/05/24 02:21:06;;;;;;;3.28;2.08;;;;;;;15.95;57.57;99451.81;5074986;28;20449;-75
2022/05/24 02:23:40;;;;;;;4.35;2.17;;;;;;;15.92;57.18;99493.28;5075018;28;20123;-75
2022/05/24 02:26:10;;;;;;;3.00;1.95;;;;;;;15.93;57.10;99500.38;5075094;28;20055;-76
2022/05/24 02:28:40;;;;;;;4.10;1.98;;;;;;;15.85;57.69;99523.59;5075002;28;20478;-77
2022/05/24 02:31:12;;;;;;;6.65;2.25;;;;;;;15.89;58.26;99539.28;5075387;28;20128;-76
2022/05/24 02:33:41;;;;;;;6.82;2.30;;;;;;;16.00;60.38;99549.03;5074955;28;20041;-76
2022/05/24 02:36:09;;;;;;;4.80;2.08;;;;;;;16.01;59.90;99556.94;5073403;28;20516;-76
2022/05/24 02:38:37;;;;;;;4.90;2.30;;;;;;;16.02;61.41;99564.06;5074603;28;20044;-77
2022/05/24 02:43:53;;;;;;;6.00;2.42;;;;;;;16.07;66.08;99570.84;5075160;28;20123;-77
2022/05/24 02:46:21;;;;;;;4.97;2.40;;;;;;;16.01;70.63;99572.25;5073642;28;20056;-76
2022/05/24 02:48:49;;;;;;;3.70;2.10;;;;;;;15.96;72.80;99579.91;5074260;28;20048;-77
2022/05/24 02:51:18;;;;;;;5.45;2.40;;;;;;;15.97;72.89;99576.22;5073500;28;20094;-76
2022/05/24 02:53:46;;;;;;;5.63;2.58;;;;;;;15.92;72.78;99582.03;5072844;28;20472;-76
2022/05/24 02:56:16;;;;;;;6.22;2.50;;;;;;;15.80;71.19;99582.31;5074007;28;20470;-74
2022/05/24 02:58:49;;;;;;;5.97;2.60;;;;;;;15.77;72.05;99583.44;5073074;28;20059;-73
2022/05/24 03:01:21;;;;;;;6.07;2.88;;;;;;;15.74;72.97;99581.06;5074548;28;20036;-74
2022/05/24 03:03:51;;;;;;;6.67;3.03;;;;;;;15.72;71.78;99578.47;5073011;28;20060;-74
2022/05/24 03:06:21;;;;;;;6.72;2.75;;;;;;;15.72;72.84;99585.69;5074090;28;20068;-76
2022/05/24 03:14:20;;;;;;;7.90;3.28;;;;;;;15.38;91.50;99590.59;5074010;28;20055;-74
2022/05/24 03:16:52;;;;;;;6.88;3.20;;;;;;;15.39;98.82;99586.94;5073924;28;20460;-75
2022/05/24 03:19:21;;;;;;;8.70;3.40;;;;;;;15.48;100.00;99585.25;5072597;28;20053;-75
2022/05/24 03:21:50;;;;;;;9.52;3.85;;;;;;;15.52;100.00;99573.22;5073529;28;20044;-75
2022/05/24 03:24:19;;;;;;;7.50;3.38;;;;;;;15.66;100.00;99567.47;5072771;28;20075;-75
2022/05/24 03:26:47;;;;;;;5.95;3.45;;;;;;;15.63;100.00;99570.41;5072426;28;20063;-75
2022/05/24 03:29:15;;;;;;;5.63;3.10;;;;;;;15.49;100.00;99581.56;5072683;28;20048;-74
2022/05/24 03:31:44;;;;;;;6.10;3.40;;;;;;;15.31;97.55;99595.66;5073648;28;20048;-75
2022/05/24 03:34:13;;;;;;;4.50;3.20;;;;;;;15.14;98.07;99601.69;5072539;28;20058;-74
2022/05/24 03:36:42;;;;;;;5.90;3.40;;;;;;;15.00;100.00;99602.94;5073130;28;20466;-75
2022/05/24 03:39:12;;;;;;;6.80;3.63;;;;;;;15.32;100.00;99612.63;5073809;28;20119;-74
2022/05/24 03:41:43;;;;;;;6.32;3.13;;;;;;;15.08;100.00;99621.06;5073806;28;20127;-81
2022/05/24 03:44:12;;;;;;;7.07;3.50;;;;;;;15.23;100.00;99625.06;5073827;28;20097;-78
2022/05/24 03:46:40;;;;;;;9.32;3.75;;;;;;;15.18;100.00;99638.06;5073650;28;20090;-78
2022/05/24 03:49:08;;;;;;;7.03;3.80;;;;;;;14.91;100.00;99648.56;5073744;28;20044;-78
2022/05/24 03:51:37;;;;;;;7.97;3.85;;;;;;;14.75;100.00;99649.88;5073166;28;20110;-78
2022/05/24 03:54:06;;;;;;;9.20;3.95;;;;;;;14.57;100.00;99655.03;5073582;28;20060;-78
2022/05/24 03:56:35;;;;;;;11.07;3.95;;;;;;;14.85;100.00;99650.78;5073351;28;20051;-79
2022/05/24 03:59:04;;;;;;;7.18;3.63;;;;;;;14.95;100.00;99644.59;5073531;28;20374;-78
2022/05/24 04:01:32;;;;;;;8.35;4.03;;;;;;;15.02;100.00;99637.72;5073258;28;20046;-78
2022/05/24 04:04:00;;;;;;;7.38;4.00;;;;;;;14.97;100.00;99630.06;5072173;28;20113;-75
2022/05/24 04:06:28;;;;;;;8.20;4.30;;;;;;;14.88;100.00;99637.09;5072160;28;20489;-78
2022/05/24 04:08:58;;;;;;;7.57;4.25;;;;;;;14.88;100.00;99647.00;5072446;28;20059;-78
2022/05/24 04:11:26;;;;;;;7.53;4.35;;;;;;;14.86;100.00;99648.94;5064799;28;20043;-77
2022/05/24 04:13:54;;;;;;;8.70;4.10;;;;;;;14.91;100.00;99643.19;5063951;28;20045;-75
2022/05/24 04:16:22;;;;;;;6.70;3.75;;;;;;;14.87;100.00;99646.16;5073180;28;20128;-75
2022/05/24 04:18:51;;;;;;;7.97;4.32;;;;;;;14.68;100.00;99646.06;5072943;28;20056;-74
2022/05/24 04:21:19;;;;;;;9.15;4.20;;;;;;;14.82;100.00;99647.53;5072916;28;20047;-75
2022/05/24 04:23:47;;;;;;;8.30;3.90;;;;;;;14.83;100.00;99652.75;5057938;28;20137;-75
2022/05/24 04:26:16;;;;;;;7.25;4.70;;;;;;;14.64;100.00;99660.69;5053074;28;20056;-74
2022/05/24 04:28:45;;;;;;;6.75;3.65;;;;;;;14.71;100.00;99661.88;5052505;28;20052;-75
2022/05/24 04:31:13;;;;;;;8.65;3.92;;;;;;;14.78;100.00;99659.53;5051832;28;20127;-74
2022/05/24 04:33:41;;;;;;;6.72;4.25;;;;;;;14.71;100.00;99653.81;5052788;28;20072;-75
2022/05/24 04:36:10;;;;;;;9.43;5.90;;;;;;;14.56;100.00;99658.66;5051815;28;20084;-74
2022/05/24 04:38:38;;;;;;;5.72;3.70;;;;;;;14.54;100.00;99657.13;5052578;28;20041;-75
2022/05/24 04:43:54;;;;;;;7.68;4.22;;;;;;;14.49;100.00;99662.88;5070323;28;20453;-74
2022/05/24 04:46:22;;;;;;;6.28;4.40;;;;;;;14.52;100.00;99654.56;5068409;28;20072;-74
2022/05/24 04:48:50;;;;;;;7.60;4.78;;;;;;;14.65;100.00;99651.66;5052670;28;20051;-75
2022/05/24 04:51:18;;;;;;;7.43;4.55;;;;;;;14.70;100.00;99653.97;5051547;28;20059;-75
2022/05/24 04:53:46;;;;;;;6.97;4.60;;;;;;;14.65;100.00;99650.81;5052277;28;20049;-74
2022/05/24 04:56:14;;;;;;;8.00;4.50;;;;;;;14.57;100.00;99654.16;5052808;28;20076;-75
2022/05/24 04:58:43;;;;;;;7.50;4.90;;;;;;;14.38;100.00;99651.31;5052464;28;20041;-74
2022/05/24 05:01:12;;;;;;;7.75;5.28;;;;;;;14.26;100.00;99654.06;5055838;28;20044;-73
2022/05/24 05:03:40;;;;;;;9.73;5.38;;;;;;;14.28;100.00;99654.81;5056180;28;20045;-73
2022/05/24 05:06:10;;;;;;;10.20;5.97;;;;;;;14.32;100.00;99660.75;5052749;28;20045;-72
2022/05/24 05:08:38;;;;;;;9.40;5.50;;;;;;;14.42;100.00;99661.66;5051050;28;20052;-72
2022/05/24 05:11:07;;;;;;;9.60;5.72;;;;;;;14.40;100.00;99668.16;5052799;28;20474;-75
2022/05/24 05:13:35;;;;;;;9.63;5.88;;;;;;;14.33;100.00;99663.31;5052794;28;20041;-73
2022/05/24 05:16:03;;;;;;;9.35;5.63;;;;;;;14.33;100.00;99663.31;5051567;28;20047;-71
2022/05/24 05:18:33;;;;;;;8.50;5.68;;;;;;;14.40;100.00;99674.38;5052465;28;20078;-71
2022/05/24 05:21:02;;;;;;;9.23;5.22;;;;;;;14.39;100.00;99672.69;5056508;28;20135;-69
2022/05/24 05:23:31;;;;;;;9.70;6.20;;;;;;;14.19;100.00;99677.03;5056379;28;20535;-69
2022/05/24 05:25:59;;;;;;;9.45;6.00;;;;;;;14.19;100.00;99674.38;5071259;28;20472;-71
2022/05/24 05:28:28;;;;;;;11.80;6.57;;;;;;;14.29;100.00;99683.34;5071356;28;20059;-69
2022/05/24 05:33:47;;;;;;;10.02;6.72;;;;;;;14.43;100.00;99678.63;5055631;28;20045;-74
2022/05/24 05:36:17;;;;;;;11.25;7.28;;;;;;;14.33;100.00;99679.41;5055810;28;20045;-73
2022/05/24 05:38:47;;;;;;;11.70;7.88;;;;;;;14.29;100.00;99679.81;5053248;28;20434;-76
2022/05/24 05:41:17;;;;;;;11.68;7.63;;;;;;;14.22;100.00;99676.78;5055416;28;20478;-73
2022/05/24 05:43:46;;;;;;;11.45;7.22;;;;;;;14.45;100.00;99682.03;5055660;28;20045;-73
2022/05/24 05:46:15;;;;;;;10.18;6.55;;;;;;;14.47;100.00;99680.94;5054612;28;20128;-73
2022/05/24 05:48:44;;;;;;;11.60;6.70;;;;;;;14.46;100.00;99673.00;5054026;28;20056;-73
2022/05/24 05:51:16;;;;;;;10.75;6.63;;;;;;;14.45;100.00;99682.91;5055360;28;20091;-73
2022/05/24 05:53:44;;;;;;;9.60;6.30;;;;;;;14.37;100.00;99679.97;5053844;28;20084;-73
2022/05/24 05:56:15;;;;;;;11.93;6.68;;;;;;;14.33;100.00;99687.44;5055642;28;20044;-73
2022/05/24 05:58:44;;;;;;;11.57;7.53;;;;;;;14.25;100.00;99694.44;5054083;28;20056;-73
2022/05/24 06:01:17;;;;;;;7.70;5.93;;;;;;;14.22;100.00;99687.50;5070836;28;20462;-73
2022/05/24 06:03:46;;;;;;;8.90;6.05;;;;;;;14.39;100.00;99694.13;5070888;28;20469;-73
2022/05/24 06:06:19;;;;;;;14.95;7.90;;;;;;;14.29;100.00;99695.91;5055587;28;20045;-72
2022/05/24 06:08:47;;;;;;;;;;;;;;;14.10;100.00;99693.91;5054304;28;20132;-74
2022/05/24 06:11:15;;;;;;;10.40;5.63;;;;;;;13.87;100.00;99687.75;5054026;28;20360;-74
2022/05/24 06:13:44;;;;;;;8.50;5.35;;;;;;;14.06;100.00;99684.41;5054950;28;20041;-72
2022/05/24 06:16:13;;;;;;;11.35;6.20;;;;;;;14.20;100.00;99694.84;5054865;28;20454;-74
2022/05/24 06:18:42;;;;;;;7.55;5.38;;;;;;;14.09;100.00;99689.53;5053640;28;20130;-75
2022/05/24 06:21:10;;;;;;;7.53;5.60;;;;;;;13.90;100.00;99681.31;5054999;28;20047;-72
2022/05/24 06:23:40;;;;;;;10.77;6.07;;;;;;;13.89;100.00;99683.09;5070447;28;20045;-74
2022/05/24 06:26:09;;;;;;;10.55;6.50;;;;;;;14.07;100.00;99688.78;5054152;28;20052;-74
2022/05/24 06:28:38;;;;;;;9.70;5.68;;;;;;;14.04;100.00;99687.22;5070558;28;20132;-74
2022/05/24 06:31:06;;;;;;;10.30;6.53;;;;;;;14.06;100.00;99686.22;5052469;28;20393;-73
2022/05/24 06:33:34;;;;;;;8.95;5.75;;;;;;;14.10;100.00;99683.19;5054951;28;20041;-74
2022/05/24 06:36:03;;;;;;;8.43;5.95;;;;;;;14.12;100.00;99681.22;5054714;28;20049;-74
2022/05/24 06:38:32;;;;;;;9.05;5.20;;;;;;;13.99;100.00;99677.84;5053426;28;20128;-72
2022/05/24 06:41:01;;;;;;;8.45;5.38;;;;;;;14.06;100.00;99676.34;5069402;28;20132;-74
2022/05/24 06:43:29;;;;;;;8.18;5.10;;;;;;;14.07;100.00;99679.88;5053479;28;20049;-72
2022/05/24 06:45:58;;;;;;;6.55;4.90;;;;;;;14.07;100.00;99690.59;5036879;28;20076;-72
2022/05/24 06:48:26;;;;;;;7.68;5.47;;;;;;;13.95;100.00;99687.13;5054515;28;20044;-72
2022/05/24 06:50:54;;;;;;;7.93;5.03;;;;;;;13.98;100.00;99690.38;5054164;28;20069;-74
2022/05/24 06:53:22;;;;;;;8.15;5.20;;;;;;;13.82;100.00;99689.13;5054365;28;20088;-72
2022/05/24 06:55:51;;;;;;;8.00;5.20;;;;;;;13.91;100.00;99688.38;5052979;28;20080;-74
2022/05/24 06:58:23;;;;;;;7.53;5.40;;;;;;;13.96;100.00;99686.16;5054556;28;20041;-74
2022/05/24 07:03:38;;;;;;;6.88;5.20;;;;;;;13.81;100.00;99676.72;5069915;28;20103;-74
2022/05/24 07:06:15;;;;;;;7.28;4.82;;;;;;;13.83;100.00;99685.47;5053076;28;20063;-73
2022/05/24 07:08:44;;;;;;;7.88;5.10;;;;;;;14.00;100.00;99688.47;5054208;28;20120;-73
2022/05/24 07:11:13;;;;;;;7.85;5.25;;;;;;;14.27;100.00;99679.91;5053232;28;20061;-74
2022/05/24 07:13:43;;;;;;;5.50;3.95;;;;;;;14.29;100.00;99680.66;5052935;28;20045;-73
2022/05/24 07:16:12;;;;;;;7.47;5.13;;;;;;;14.55;100.00;99677.59;5053810;28;20045;-73
2022/05/24 07:18:40;;;;;;;7.65;5.15;;;;;;;14.73;100.00;99686.75;5054159;28;20486;-74
2022/05/24 07:21:09;;;;;;;6.50;4.88;;;;;;;14.85;100.00;99692.88;5053657;28;20051;-74
2022/05/24 07:23:38;;;;;;;9.10;4.63;;;;;;;14.89;100.00;99692.50;5052642;28;20045;-73
2022/05/24 07:26:12;;;;;;;7.35;4.88;;;;;;;14.81;100.00;99686.94;5053734;28;20076;-74
2022/05/24 07:29:02;;;;;;;6.80;5.10;;;;;;;15.22;100.00;99682.47;5052336;28;20053;-73
2022/05/24 07:31:32;;;;;;;10.90;5.20;;;;;;;15.60;100.00;99673.69;5053815;28;20129;-74
2022/05/24 07:34:01;;;;;;;9.00;4.57;;;;;;;15.80;100.00;99671.91;5069055;28;20049;-74
2022/05/24 07:36:30;;;;;;;6.05;4.38;;;;;;;15.72;100.00;99669.06;5052473;28;20048;-74
2022/05/24 07:38:58;;;;;;;6.18;4.28;;;;;;;15.95;100.00;99673.19;5053204;28;20108;-73
2022/05/24 07:47:23;;;;;;;5.65;3.95;;;;;;;16.37;100.00;99683.66;5053582;28;20134;-73
2022/05/24 07:49:52;;;;;;;6.07;4.57;;;;;;;16.57;100.00;99682.66;5068752;28;20094;-74
2022/05/24 07:52:20;;;;;;;6.50;5.00;;;;;;;16.84;100.00;99683.75;5052344;28;20059;-73
2022/05/24 07:54:48;;;;;;;9.32;4.75;;;;;;;17.26;100.00;99694.09;5052055;28;20098;-75
2022/05/24 07:57:17;;;;;;;6.88;4.32;;;;;;;17.46;100.00;99695.72;5052261;28;20045;-74
2022/05/24 07:59:53;;;;;;;5.65;4.18;;;;;;;17.57;100.00;99694.69;5053004;28;20053;-74
2022/05/24 08:02:22;;;;;;;6.05;4.40;;;;;;;17.67;100.00;99693.63;5051950;28;20077;-74
2022/05/24 08:04:54;;;;;;;6.80;4.10;;;;;;;17.80;100.00;99682.50;5051889;28;20429;-74
2022/05/24 08:07:22;;;;;;;6.53;4.47;;;;;;;17.80;100.00;99682.50;5053427;28;20041;-73
2022/05/24 08:09:52;;;;;;;9.55;4.57;;;;;;;17.96;100.00;99681.81;5051762;28;20477;-74
2022/05/24 08:12:20;;;;;;;5.30;3.95;;;;;;;17.97;100.00;99686.22;5053295;28;20478;-73
2022/05/24 08:14:49;;;;;;;6.07;4.00;;;;;;;18.14;100.00;99695.28;5053174;28;20052;-80
2022/05/24 08:17:20;;;;;;;8.90;4.13;;;;;;;18.20;100.00;99692.84;5052855;28;20128;-73
2022/05/24 08:19:48;;;;;;;6.85;3.90;;;;;;;17.92;100.00;99691.22;5051811;28;20069;-73
2022/05/24 08:22:17;;;;;;;6.97;3.65;;;;;;;17.31;100.00;99697.22;5051931;28;20136;-73
2022/05/24 08:24:46;;;;;;;5.13;3.60;;;;;;;18.07;100.00;99687.00;5053146;28;20072;-73
2022/05/24 08:27:16;;;;;;;5.38;4.00;;;;;;;18.02;100.00;99686.59;5068558;28;20045;-73
2022/05/24 08:29:44;;;;;;;6.53;3.50;;;;;;;18.41;100.00;99691.66;5052974;28;20072;-73
2022/05/24 08:32:13;;;;;;;6.63;3.70;;;;;;;18.25;100.00;99687.00;5051524;28;20102;-73
2022/05/24 08:34:43;;;;;;;8.18;3.60;;;;;;;18.60;100.00;99686.94;5051732;28;20511;-73
2022/05/24 08:37:12;;;;;;;4.82;3.38;;;;;;;18.84;100.00;99682.75;5052852;28;20045;-73
2022/05/24 08:39:40;;;;;;;8.55;3.65;;;;;;;18.90;100.00;99679.41;5051417;28;20524;-73
2022/05/24 08:42:18;;;;;;;7.15;3.30;;;;;;;19.16;100.00;99682.09;5052749;28;20072;-73
2022/05/24 08:50:34;;;;;;;6.25;3.20;;;;;;;19.09;100.00;99678.31;5052901;28;20402;-73
2022/05/24 08:53:07;;;;;;;5.20;2.92;;;;;;;19.22;100.00;99673.34;5052611;28;20055;-73
2022/05/24 08:55:42;;;;;;;4.43;2.80;;;;;;;19.23;100.00;99672.34;5071889;28;20049;-73
2022/05/24 08:58:15;;;;;;;6.28;2.60;;;;;;;19.02;100.00;99674.59;5056644;28;20048;-73
2022/05/24 09:00:44;;;;;;;5.15;2.58;;;;;;;19.42;100.00;99672.09;5055529;28;20076;-74
2022/05/24 09:03:13;;;;;;;3.92;2.28;;;;;;;19.12;100.00;99672.63;5055158;28;20056;-73
2022/05/24 09:05:50;;;;;;;5.15;2.70;;;;;;;19.02;100.00;99671.91;5056780;28;20045;-73
2022/05/24 09:08:26;;;;;;;5.03;2.85;;;;;;;18.82;100.00;99677.53;5056701;28;20052;-73
2022/05/24 09:11:07;;;;;;;4.75;2.40;;;;;;;18.57;100.00;99675.59;5054809;28;20098;-75
2022/05/24 09:13:55;;;;;;;5.03;2.20;;;;;;;18.74;100.00;99669.34;5055389;28;20048;-73
2022/05/24 09:16:36;;;;;;;5.45;2.67;;;;;;;19.10;100.00;99671.91;5055269;28;20055;-73
2022/05/24 09:19:15;;;;;;;6.55;2.40;;;;;;;19.03;100.00;99677.13;5054988;28;20060;-73
2022/05/24 09:21:47;;;;;;;4.82;2.60;;;;;;;19.40;100.00;99674.13;5056197;28;20045;-73
2022/05/24 09:24:23;;;;;;;5.40;2.83;;;;;;;19.68;100.00;99671.16;5054841;28;20059;-73
2022/05/24 09:27:10;;;;;;;5.18;3.13;;;;;;;19.87;100.00;99680.88;5056356;28;20470;-73
2022/05/24 09:29:57;;;;;;;4.88;2.85;;;;;;;20.09;100.00;99684.81;5055896;28;20048;-73
2022/05/24 09:32:36;;;;;;;4.97;2.60;;;;;;;19.71;100.00;99678.97;5056255;28;20067;-73
2022/05/24 09:35:21;;;;;;;5.10;2.70;;;;;;;19.67;100.00;99672.19;5055715;28;20052;-73
2022/05/24 09:38:16;;;;;;;4.30;2.70;;;;;;;19.96;100.00;99672.59;5055111;28;20458;-73
2022/05/24 09:40:49;;;;;;;6.20;2.83;;;;;;;20.11;100.00;99671.97;5055587;28;20379;-73
2022/05/24 09:43:29;;;;;;;6.15;3.20;;;;;;;20.38;100.00;99668.94;5054560;28;20072;-73
2022/05/24 09:46:01;;;;;;;6.30;2.90;;;;;;;20.47;100.00;99667.94;5054546;28;20532;-74
2022/05/24 09:48:32;;;;;;;5.07;2.90;;;;;;;20.64;100.00;99676.88;5055973;28;20513;-74
2022/05/24 09:51:03;;;;;;;6.45;2.80;;;;;;;20.80;100.00;99678.75;5055550;28;20037;-74
2022/05/24 09:53:33;;;;;;;6.53;3.15;;;;;;;21.02;100.00;99675.31;5055474;28;20473;-74
2022/05/24 09:56:05;;;;;;;3.90;2.35;;;;;;;20.74;100.00;99674.00;5070712;28;20055;-74
2022/05/24 09:58:36;;;;;;;4.63;2.50;;;;;;;20.57;100.00;99679.44;5054623;28;20082;-74
2022/05/24 10:01:07;;;;;;;3.42;2.08;;;;;;;20.47;100.00;99673.38;5055200;28;20045;-74
2022/05/24 10:03:40;;;;;;;4.35;2.40;;;;;;;20.35;100.00;99674.66;5070963;28;20102;-74
2022/05/24 10:06:25;;;;;;;5.03;2.20;;;;;;;20.36;100.00;99679.06;5053752;28;20106;-74
2022/05/24 10:08:58;;;;;;;4.93;2.20;;;;;;;20.33;100.00;99675.84;5053345;28;20044;-74
2022/05/24 10:11:36;;;;;;;3.85;2.30;;;;;;;20.40;100.00;99683.16;5054202;28;20055;-73
2022/05/24 10:14:19;;;;;;;7.05;3.10;;;;;;;20.50;100.00;99686.56;5054276;28;20417;-73
2022/05/24 10:16:53;;;;;;;3.70;2.13;;;;;;;20.61;100.00;99681.81;5054241;28;20398;-73
2022/05/24 10:19:43;;;;;;;4.50;2.35;;;;;;;21.02;100.00;99694.28;5055133;28;20501;-73
2022/05/24 10:22:24;;;;;;;4.03;2.58;;;;;;;21.42;100.00;99687.06;5053713;28;20190;-73
2022/05/24 10:25:04;;;;;;;4.75;2.28;;;;;;;21.52;100.00;99693.16;5055264;28;20047;-73
2022/05/24 10:27:43;;;;;;;4.55;2.42;;;;;;;21.65;100.00;99685.28;5070687;28;20387;-72
2022/05/24 10:30:19;;;;;;;5.13;2.33;;;;;;;21.59;100.00;99680.56;5053536;28;20053;-73
2022/05/24 10:38:56;;;;;;;4.07;2.20;;;;;;;21.12;100.00;99669.69;5070113;28;20088;-74
2022/05/24 10:41:28;;;;;;;4.18;2.53;;;;;;;21.29;100.00;99663.22;5054519;28;20060;-74
2022/05/24 10:44:03;;;;;;;8.82;2.85;;;;;;;21.70;100.00;99660.31;5053671;28;20049;-74
2022/05/24 10:46:39;;;;;;;4.35;2.80;;;;;;;21.70;100.00;99654.88;5054977;28;20041;-72
2022/05/24 10:49:17;;;;;;;6.32;2.53;;;;;;;21.88;100.00;99643.75;5054626;28;20047;-73
2022/05/24 10:51:49;;;;;;;4.78;2.50;;;;;;;21.79;100.00;99650.25;5054722;28;20496;-72
2022/05/24 10:54:30;;;;;;;4.68;2.70;;;;;;;21.96;100.00;99649.13;5069622;28;20083;-71
2022/05/24 10:57:04;;;;;;;3.90;2.50;;;;;;;21.62;100.00;99647.66;5054703;28;20076;-72
2022/05/24 10:59:43;;;;;;;4.40;3.00;;;;;;;21.87;100.00;99652.94;5054481;28;20425;-72
2022/05/24 11:02:19;;;;;;;6.45;3.10;;;;;;;22.14;100.00;99649.72;5054276;28;20044;-72
2022/05/24 11:04:52;;;;;;;4.78;2.97;;;;;;;22.35;100.00;99651.75;5053258;28;20056;-73
2022/05/24 11:07:21;;;;;;;4.55;3.00;;;;;;;22.35;100.00;99661.78;5052914;28;20448;-73
2022/05/24 11:10:05;;;;;;;6.18;2.90;;;;;;;22.25;100.00;99653.88;5052997;28;20083;-74
2022/05/24 11:12:41;;;;;;;4.45;2.75;;;;;;;22.65;100.00;99649.97;5053208;28;20060;-74
2022/05/24 11:15:19;;;;;;;4.82;2.80;;;;;;;22.47;100.00;99652.16;5054058;28;20099;-73
2022/05/24 11:17:47;;;;;;;6.35;3.03;;;;;;;22.50;100.00;99654.53;5053536;28;20045;-73
2022/05/24 11:20:25;;;;;;;4.95;3.15;;;;;;;22.65;100.00;99627.38;5052498;28;20525;-73
2022/05/24 11:23:04;;;;;;;4.32;2.85;;;;;;;22.36;100.00;99623.56;5052746;28;20542;-73
2022/05/24 11:25:40;;;;;;;4.18;2.70;;;;;;;22.23;100.00;99636.91;5053689;28;20041;-73
2022/05/24 11:28:19;;;;;;;4.65;2.95;;;;;;;22.16;100.00;99633.25;5052561;28;20413;-73
2022/05/24 11:30:49;;;;;;;3.95;2.67;;;;;;;22.03;100.00;99633.81;5052633;28;20079;-73
2022/05/24 11:33:31;;;;;;;4.38;2.90;;;;;;;21.49;100.00;99647.38;5052418;28;20071;-73
2022/05/24 11:36:22;;;;;;;6.20;3.25;;;;;;;21.68;100.00;99638.78;5053926;28;20113;-73
2022/05/24 11:38:51;;;;;;;5.15;3.08;;;;;;;21.68;100.00;99630.63;5052906;28;20114;-73
2022/05/24 11:41:28;;;;;;;5.95;2.88;;;;;;;21.82;100.00;99628.19;5052127;28;20049;-73
2022/05/24 11:44:02;;;;;;;4.82;3.25;;;;;;;21.84;100.00;99628.88;5053651;28;20041;-73
2022/05/24 11:46:41;;;;;;;5.32;3.08;;;;;;;21.88;100.00;99622.03;5052357;28;20110;-73
2022/05/24 11:49:12;;;;;;;5.05;3.20;;;;;;;21.56;100.00;99623.09;5053464;28;20446;-73
2022/05/24 11:51:44;;;;;;;5.60;3.50;;;;;;;21.51;100.00;99628.19;5052346;28;20139;-73
2022/05/24 11:55:04;;;;;;;4.85;3.13;;;;;;;21.69;100.00;99620.63;5052036;28;20053;-73
2022/05/24 11:57:41;;;;;;;7.30;4.40;;;;;;;21.34;100.00;99628.28;5014847;28;20506;-71
2022/05/24 12:00:13;;;;;;;4.95;2.97;;;;;;;21.42;100.00;99616.53;5014463;28;20060;-73
2022/05/24 12:08:37;;;;;;;5.38;3.60;;;;;;;21.37;100.00;99610.81;5053184;28;20041;-73
2022/05/24 12:11:18;;;;;;;6.78;3.42;;;;;;;21.49;100.00;99614.81;5052079;28;20436;-72
2022/05/24 12:14:08;;;;;;;5.90;3.25;;;;;;;21.44;100.00;99600.94;5068717;28;20072;-73
2022/05/24 12:17:09;;;;;;;5.88;3.28;;;;;;;21.24;100.00;99605.09;5053344;28;20037;-73
2022/05/24 12:19:52;;;;;;;6.78;3.80;;;;;;;21.30;100.00;99609.81;5052077;28;20049;-73
2022/05/24 12:22:26;;;;;;;5.40;3.80;;;;;;;21.21;100.00;99611.69;5053006;28;20540;-73
2022/05/24 12:25:03;;;;;;;6.70;3.45;;;;;;;21.03;100.00;99609.22;5051815;28;20053;-73
2022/05/24 12:27:44;;;;;;;4.22;2.80;;;;;;;20.94;100.00;99607.56;5052850;28;20067;-73
2022/05/24 12:30:39;;;;;;;6.35;3.50;;;;;;;21.30;100.00;99601.69;5051762;28;20530;-73
2022/05/24 12:33:26;;;;;;;6.88;3.45;;;;;;;21.38;100.00;99590.78;5051694;28;20056;-72
2022/05/24 12:36:00;;;;;;;5.05;3.28;;;;;;;21.37;100.00;99594.53;5051955;28;20049;-73